createdAt,value
2018-01-11T00:00:34.569Z,0
2018-01-11T00:01:44.612Z,0
2018-01-11T00:02:54.479Z,0
2018-01-11T00:04:04.887Z,0
2018-01-11T00:05:14.951Z,0
2018-01-11T00:06:25.010Z,0
2018-01-11T00:07:35.038Z,0
2018-01-11T00:08:44.817Z,0
2018-01-11T00:09:54.339Z,0
2018-01-11T00:11:04.140Z,0
2018-01-11T00:12:13.948Z,0
2018-01-11T00:13:23.735Z,0
2018-01-11T00:14:33.841Z,0
2018-01-11T00:15:43.631Z,0
2018-01-11T00:16:53.676Z,0
2018-01-11T00:18:03.717Z,0
2018-01-11T00:19:13.780Z,0
2018-01-11T00:20:23.850Z,0
2018-01-11T00:21:33.905Z,0
2018-01-11T00:22:43.963Z,0
2018-01-11T00:23:53.854Z,0
2018-01-11T00:25:03.922Z,0
2018-01-11T00:26:14.004Z,0
2018-01-11T00:27:23.790Z,0
2018-01-11T00:28:33.843Z,0
2018-01-11T00:29:43.900Z,0
2018-01-11T00:30:53.960Z,0
2018-01-11T00:32:04.022Z,0
2018-01-11T00:33:14.095Z,0
2018-01-11T00:34:24.147Z,0
2018-01-11T00:35:34.208Z,0
2018-01-11T00:36:44.306Z,0
2018-01-11T00:37:54.368Z,0
2018-01-11T00:39:04.469Z,0
2018-01-11T00:40:13.747Z,0
2018-01-11T00:41:23.802Z,0
2018-01-11T00:42:33.591Z,0
2018-01-11T00:43:43.642Z,0
2018-01-11T00:44:53.683Z,0
2018-01-11T00:46:03.725Z,0
2018-01-11T00:47:13.775Z,0
2018-01-11T00:48:23.836Z,0
2018-01-11T00:49:33.903Z,0
2018-01-11T00:50:43.963Z,0
2018-01-11T00:51:54.015Z,0
2018-01-11T00:53:04.063Z,0
2018-01-11T00:54:14.118Z,0
2018-01-11T00:55:23.970Z,0
2018-01-11T00:56:34.014Z,0
2018-01-11T00:57:43.861Z,0
2018-01-11T00:58:53.925Z,0
2018-01-11T01:00:03.993Z,0
2018-01-11T01:01:13.823Z,0
2018-01-11T01:02:23.879Z,0
2018-01-11T01:03:33.433Z,0
2018-01-11T01:04:43.478Z,0
2018-01-11T01:05:53.524Z,0
2018-01-11T01:07:03.425Z,0
2018-01-11T01:08:13.464Z,0
2018-01-11T01:09:23.515Z,0
2018-01-11T01:10:33.585Z,0
2018-01-11T01:11:43.647Z,0
2018-01-11T01:12:53.447Z,0
2018-01-11T01:14:03.492Z,0
2018-01-11T01:15:13.548Z,0
2018-01-11T01:16:23.586Z,0
2018-01-11T01:17:33.690Z,0
2018-01-11T01:18:43.793Z,0
2018-01-11T01:19:53.579Z,0
2018-01-11T01:21:03.116Z,0
2018-01-11T01:22:13.182Z,0
2018-01-11T01:23:22.975Z,0
2018-01-11T01:24:33.073Z,0
2018-01-11T01:25:43.123Z,0
2018-01-11T01:26:53.176Z,0
2018-01-11T01:28:03.235Z,0
2018-01-11T01:29:13.292Z,0
2018-01-11T01:30:23.087Z,0
2018-01-11T01:31:32.890Z,0
2018-01-11T01:32:42.684Z,0
2018-01-11T01:33:52.474Z,0
2018-01-11T01:35:02.518Z,0
2018-01-11T01:36:12.584Z,0
2018-01-11T01:37:22.635Z,0
2018-01-11T01:38:32.427Z,0
2018-01-11T01:39:42.493Z,0
2018-01-11T01:40:52.541Z,0
2018-01-11T01:42:02.602Z,0
2018-01-11T01:43:12.695Z,0
2018-01-11T01:44:22.487Z,0
2018-01-11T01:45:32.541Z,0
2018-01-11T01:46:42.569Z,0
2018-01-11T01:47:52.673Z,0
2018-01-11T01:49:02.203Z,0
2018-01-11T01:50:12.264Z,0
2018-01-11T01:51:22.302Z,0
2018-01-11T01:52:32.358Z,0
2018-01-11T01:53:41.874Z,0
2018-01-11T01:54:51.932Z,0
2018-01-11T01:56:02.045Z,0
2018-01-11T01:57:11.876Z,0
2018-01-11T01:58:21.671Z,0
2018-01-11T01:59:31.784Z,0
2018-01-11T02:00:41.576Z,0
2018-01-11T02:01:51.692Z,0
2018-01-11T02:03:01.746Z,0
2018-01-11T02:04:11.805Z,0
2018-01-11T02:05:21.903Z,0
2018-01-11T02:06:31.956Z,0
2018-01-11T02:07:42.011Z,0
2018-01-11T02:08:52.061Z,0
2018-01-11T02:10:01.847Z,0
2018-01-11T02:11:11.656Z,0
2018-01-11T02:12:21.453Z,0
2018-01-11T02:13:31.504Z,0
2018-01-11T02:14:41.285Z,0
2018-01-11T02:15:51.091Z,0
2018-01-11T02:17:01.141Z,0
2018-01-11T02:18:10.947Z,0
2018-01-11T02:19:20.991Z,0
2018-01-11T02:20:31.035Z,0
2018-01-11T02:21:40.834Z,0
2018-01-11T02:22:50.919Z,0
2018-01-11T02:24:00.992Z,0
2018-01-11T02:25:11.035Z,0
2018-01-11T02:26:21.078Z,0
2018-01-11T02:27:31.143Z,0
2018-01-11T02:28:40.932Z,0
2018-01-11T02:29:50.716Z,0
2018-01-11T02:31:00.843Z,0
2018-01-11T02:32:10.918Z,0
2018-01-11T02:33:20.729Z,0
2018-01-11T02:34:30.771Z,0
2018-01-11T02:35:40.720Z,0
2018-01-11T02:36:50.779Z,0
2018-01-11T02:38:00.843Z,0
2018-01-11T02:39:10.941Z,0
2018-01-11T02:40:21.028Z,0
2018-01-11T02:41:30.828Z,0
2018-01-11T02:42:40.889Z,0
2018-01-11T02:43:50.679Z,0
2018-01-11T02:45:00.215Z,0
2018-01-11T02:46:09.828Z,0
2018-01-11T02:47:19.886Z,0
2018-01-11T02:48:29.947Z,0
2018-01-11T02:49:39.999Z,0
2018-01-11T02:50:50.063Z,0
2018-01-11T02:51:59.895Z,0
2018-01-11T02:53:09.709Z,0
2018-01-11T02:54:19.770Z,0
2018-01-11T02:55:29.827Z,0
2018-01-11T02:56:39.889Z,0
2018-01-11T02:57:49.984Z,0
2018-01-11T02:59:00.067Z,0
2018-01-11T03:00:10.136Z,0
2018-01-11T03:01:20.213Z,0
2018-01-11T03:02:31.052Z,0
2018-01-11T03:34:20.692Z,0
2018-01-11T03:35:30.735Z,0
2018-01-11T03:36:40.792Z,0
2018-01-11T03:37:50.837Z,0
2018-01-11T03:39:00.618Z,0
2018-01-11T03:40:10.702Z,0
2018-01-11T03:41:20.478Z,0
2018-01-11T03:42:30.527Z,0
2018-01-11T03:43:40.577Z,0
2018-01-11T03:44:50.617Z,0
2018-01-11T03:46:00.668Z,0
2018-01-11T03:47:10.721Z,0
2018-01-11T03:48:20.778Z,0
2018-01-11T03:49:30.827Z,0
2018-01-11T03:50:40.882Z,0
2018-01-11T03:51:50.134Z,0
2018-01-11T03:53:00.174Z,0
2018-01-11T03:54:09.964Z,0
2018-01-11T03:55:20.010Z,0
2018-01-11T03:56:29.294Z,0
2018-01-11T03:57:38.608Z,0
2018-01-11T03:58:48.395Z,0
2018-01-11T03:59:58.189Z,0
2018-01-11T04:01:08.247Z,0
2018-01-11T04:02:18.346Z,0
2018-01-11T04:03:29.044Z,0
2018-01-11T04:04:39.105Z,0
2018-01-11T04:05:48.926Z,0
2018-01-11T04:06:59.667Z,0
2018-01-11T04:08:09.483Z,0
2018-01-11T04:09:19.377Z,0
2018-01-11T04:10:29.428Z,0
2018-01-11T04:11:39.472Z,0
2018-01-11T04:12:49.510Z,0
2018-01-11T04:13:59.306Z,0
2018-01-11T04:15:09.144Z,0
2018-01-11T04:16:18.941Z,0
2018-01-11T04:17:29.001Z,0
2018-01-11T04:18:39.076Z,0
2018-01-11T04:19:48.901Z,0
2018-01-11T04:20:58.993Z,0
2018-01-11T04:22:09.040Z,0
2018-01-11T04:23:19.102Z,0
2018-01-11T04:24:29.146Z,0
2018-01-11T04:25:39.192Z,0
2018-01-11T04:26:49.235Z,0
2018-01-11T04:27:59.293Z,0
2018-01-11T04:29:09.345Z,0
2018-01-11T04:30:19.387Z,0
2018-01-11T04:31:29.439Z,0
2018-01-11T04:32:39.723Z,0
2018-01-11T04:33:49.768Z,0
2018-01-11T04:34:59.849Z,0
2018-01-11T04:36:09.906Z,0
2018-01-11T04:37:19.711Z,0
2018-01-11T04:38:29.503Z,0
2018-01-11T04:39:39.548Z,0
2018-01-11T04:40:49.600Z,0
2018-01-11T04:41:59.130Z,0
2018-01-11T04:43:08.922Z,0
2018-01-11T04:44:18.709Z,0
2018-01-11T04:45:28.500Z,0
2018-01-11T04:46:38.556Z,0
2018-01-11T04:47:48.610Z,0
2018-01-11T04:48:58.680Z,0
2018-01-11T04:50:08.795Z,0
2018-01-11T04:51:18.867Z,0
2018-01-11T04:52:28.928Z,0
2018-01-11T04:53:38.727Z,0
2018-01-11T04:54:48.262Z,0
2018-01-11T04:55:58.362Z,0
2018-01-11T04:57:08.163Z,0
2018-01-11T04:58:18.237Z,0
2018-01-11T04:59:28.300Z,0
2018-01-11T05:00:38.370Z,0
2018-01-11T05:01:48.428Z,0
2018-01-11T05:02:58.502Z,0
2018-01-11T05:04:08.578Z,0
2018-01-11T05:05:18.628Z,0
2018-01-11T05:06:28.420Z,0
2018-01-11T05:07:38.247Z,0
2018-01-11T05:08:48.033Z,0
2018-01-11T05:09:57.811Z,0
2018-01-11T05:11:07.968Z,0
2018-01-11T05:12:18.060Z,0
2018-01-11T05:13:28.133Z,0
2018-01-11T05:14:38.223Z,0
2018-01-11T05:15:48.278Z,0
2018-01-11T05:16:58.106Z,0
2018-01-11T05:18:08.188Z,0
2018-01-11T05:19:18.034Z,0
2018-01-11T05:20:28.072Z,0
2018-01-11T05:21:37.865Z,0
2018-01-11T05:22:47.919Z,0
2018-01-11T05:23:57.967Z,0
2018-01-11T05:25:07.760Z,0
2018-01-11T05:26:17.556Z,0
2018-01-11T05:27:27.626Z,0
2018-01-11T05:28:37.687Z,0
2018-01-11T05:29:47.747Z,0
2018-01-11T05:30:57.797Z,0
2018-01-11T05:32:07.870Z,0
2018-01-11T05:33:17.941Z,0
2018-01-11T05:34:27.742Z,0
2018-01-11T05:35:37.810Z,0
2018-01-11T05:36:47.860Z,0
2018-01-11T05:37:57.923Z,0
2018-01-11T05:39:07.977Z,0
2018-01-11T05:40:18.032Z,0
2018-01-11T05:41:28.090Z,0
2018-01-11T05:42:38.142Z,0
2018-01-11T05:43:47.681Z,0
2018-01-11T05:44:57.726Z,0
2018-01-11T05:46:07.519Z,0
2018-01-11T05:47:17.577Z,0
2018-01-11T05:48:27.630Z,0
2018-01-11T05:49:37.538Z,0
2018-01-11T05:50:47.332Z,0
2018-01-11T05:51:57.135Z,0
2018-01-11T05:53:07.195Z,0
2018-01-11T05:54:16.993Z,0
2018-01-11T05:55:27.039Z,0
2018-01-11T05:56:37.096Z,0
2018-01-11T05:57:47.165Z,0
2018-01-11T05:58:56.966Z,0
2018-01-11T06:00:06.762Z,0
2018-01-11T06:01:16.827Z,0
2018-01-11T06:02:26.879Z,0
2018-01-11T06:03:36.984Z,0
2018-01-11T06:04:46.774Z,0
2018-01-11T06:05:56.829Z,0
2018-01-11T06:07:06.884Z,0
2018-01-11T06:08:16.929Z,0
2018-01-11T06:09:26.732Z,0
2018-01-11T06:10:36.792Z,0
2018-01-11T06:11:46.854Z,0
2018-01-11T06:12:56.930Z,0
2018-01-11T06:14:07.002Z,0
2018-01-11T06:15:17.050Z,0
2018-01-11T06:16:27.113Z,0
2018-01-11T06:17:37.166Z,0
2018-01-11T06:18:46.961Z,0
2018-01-11T06:19:57.061Z,0
2018-01-11T06:21:07.114Z,0
2018-01-11T06:22:16.909Z,0
2018-01-11T06:23:27.017Z,0
2018-01-11T06:24:36.869Z,0
2018-01-11T06:25:46.934Z,0
2018-01-11T06:26:56.983Z,0
2018-01-11T06:28:07.034Z,0
2018-01-11T06:29:17.186Z,0
2018-01-11T06:30:27.253Z,0
2018-01-11T06:31:37.034Z,0
2018-01-11T06:32:47.076Z,0
2018-01-11T06:33:57.156Z,0
2018-01-11T06:35:06.956Z,0
2018-01-11T06:36:16.759Z,0
2018-01-11T06:37:26.552Z,0
2018-01-11T06:38:36.377Z,0
2018-01-11T06:39:46.181Z,0
2018-01-11T06:40:55.963Z,0
2018-01-11T06:42:06.024Z,0
2018-01-11T06:43:16.083Z,0
2018-01-11T06:44:26.138Z,0
2018-01-11T06:45:36.191Z,0
2018-01-11T06:46:46.292Z,0
2018-01-11T06:47:56.100Z,0
2018-01-11T06:49:05.641Z,0
2018-01-11T06:50:15.693Z,0
2018-01-11T06:51:25.783Z,0
2018-01-11T06:52:35.580Z,5
2018-01-11T06:53:45.361Z,5
2018-01-11T06:54:55.408Z,5
2018-01-11T06:56:05.465Z,5
2018-01-11T06:57:15.545Z,10
2018-01-11T06:58:25.625Z,10
2018-01-11T06:59:35.429Z,10
2018-01-11T07:00:45.266Z,15
2018-01-11T07:01:55.324Z,15
2018-01-11T07:03:05.133Z,20
2018-01-11T07:04:14.942Z,20
2018-01-11T07:05:24.506Z,20
2018-01-11T07:06:34.567Z,25
2018-01-11T07:07:44.633Z,25
2018-01-11T07:08:54.700Z,25
2018-01-11T07:10:04.505Z,25
2018-01-11T07:11:14.579Z,30
2018-01-11T07:12:24.644Z,30
2018-01-11T07:13:34.536Z,30
2018-01-11T07:14:44.602Z,30
2018-01-11T07:15:54.705Z,30
2018-01-11T07:17:04.752Z,30
2018-01-11T07:18:14.527Z,30
2018-01-11T07:19:24.616Z,35
2018-01-11T07:20:34.761Z,40
2018-01-11T07:21:44.815Z,35
2018-01-11T07:22:54.606Z,35
2018-01-11T07:24:04.384Z,40
2018-01-11T07:25:14.443Z,40
2018-01-11T07:26:24.502Z,40
2018-01-11T07:27:34.554Z,45
2018-01-11T07:28:44.713Z,45
2018-01-11T07:29:54.778Z,45
2018-01-11T07:31:04.864Z,50
2018-01-11T07:32:14.931Z,50
2018-01-11T07:33:24.998Z,50
2018-01-11T07:34:34.849Z,55
2018-01-11T07:35:44.636Z,55
2018-01-11T07:36:54.681Z,55
2018-01-11T07:38:04.467Z,55
2018-01-11T07:39:14.507Z,55
2018-01-11T07:40:24.584Z,60
2018-01-11T07:41:34.649Z,55
2018-01-11T07:42:44.183Z,60
2018-01-11T07:43:54.242Z,60
2018-01-11T07:45:04.299Z,60
2018-01-11T07:46:14.460Z,55
2018-01-11T07:47:24.257Z,60
2018-01-11T07:48:34.119Z,55
2018-01-11T07:49:44.166Z,50
2018-01-11T07:50:53.943Z,50
2018-01-11T07:52:03.738Z,55
2018-01-11T07:53:13.794Z,55
2018-01-11T07:54:23.843Z,55
2018-01-11T07:55:33.946Z,60
2018-01-11T07:56:44.060Z,70
2018-01-11T07:57:54.099Z,80
2018-01-11T07:59:04.160Z,85
2018-01-11T08:00:14.224Z,85
2018-01-11T08:01:24.009Z,85
2018-01-11T08:02:34.078Z,80
2018-01-11T08:03:43.878Z,80
2018-01-11T08:04:53.659Z,80
2018-01-11T08:06:03.725Z,80
2018-01-11T08:07:13.828Z,85
2018-01-11T08:08:23.903Z,80
2018-01-11T08:09:33.945Z,80
2018-01-11T08:10:43.997Z,85
2018-01-11T08:11:54.057Z,85
2018-01-11T08:13:04.111Z,85
2018-01-11T08:14:14.162Z,90
2018-01-11T08:15:23.685Z,95
2018-01-11T08:16:33.727Z,95
2018-01-11T08:17:43.771Z,95
2018-01-11T08:18:53.559Z,95
2018-01-11T08:20:03.615Z,95
2018-01-11T08:21:13.143Z,95
2018-01-11T08:22:22.970Z,110
2018-01-11T08:23:32.761Z,110
2018-01-11T08:24:43.370Z,110
2018-01-11T08:25:53.161Z,110
2018-01-11T08:27:03.283Z,110
2018-01-11T08:28:13.086Z,110
2018-01-11T08:29:23.134Z,115
2018-01-11T08:30:33.213Z,115
2018-01-11T08:31:43.276Z,110
2018-01-11T08:32:53.337Z,115
2018-01-11T08:34:03.439Z,115
2018-01-11T08:35:13.494Z,115
2018-01-11T08:36:24.650Z,115
2018-01-11T08:37:34.702Z,115
2018-01-11T08:38:44.753Z,120
2018-01-11T08:39:54.810Z,115
2018-01-11T08:41:04.868Z,115
2018-01-11T08:42:14.915Z,105
2018-01-11T08:43:24.721Z,105
2018-01-11T08:44:34.772Z,105
2018-01-11T08:45:44.879Z,135
2018-01-11T08:46:54.927Z,135
2018-01-11T08:48:04.728Z,135
2018-01-11T08:49:14.541Z,135
2018-01-11T08:50:24.343Z,135
2018-01-11T08:51:34.138Z,135
2018-01-11T08:52:43.675Z,130
2018-01-11T08:53:53.472Z,135
2018-01-11T08:55:03.271Z,140
2018-01-11T08:56:13.337Z,140
2018-01-11T08:57:23.481Z,140
2018-01-11T08:58:33.562Z,135
2018-01-11T08:59:43.618Z,125
2018-01-11T09:00:53.693Z,125
2018-01-11T09:02:03.744Z,135
2018-01-11T09:03:13.677Z,135
2018-01-11T09:04:23.721Z,140
2018-01-11T09:05:33.782Z,140
2018-01-11T09:06:43.906Z,140
2018-01-11T09:07:53.720Z,145
2018-01-11T09:09:03.859Z,135
2018-01-11T09:10:13.927Z,135
2018-01-11T09:11:24.023Z,135
2018-01-11T09:12:34.102Z,140
2018-01-11T09:13:44.167Z,140
2018-01-11T09:14:53.444Z,140
2018-01-11T09:16:03.522Z,130
2018-01-11T09:17:13.359Z,135
2018-01-11T09:18:23.429Z,135
2018-01-11T09:19:33.240Z,140
2018-01-11T09:20:43.312Z,150
2018-01-11T09:21:53.385Z,145
2018-01-11T09:23:02.940Z,145
2018-01-11T09:24:13.006Z,145
2018-01-11T09:25:22.808Z,150
2018-01-11T09:26:32.612Z,145
2018-01-11T09:27:42.711Z,125
2018-01-11T09:28:52.845Z,135
2018-01-11T09:30:02.677Z,150
2018-01-11T09:31:12.758Z,130
2018-01-11T09:32:22.824Z,125
2018-01-11T09:33:32.948Z,125
2018-01-11T09:34:43.807Z,145
2018-01-11T09:35:53.897Z,150
2018-01-11T09:37:03.971Z,140
2018-01-11T09:38:14.888Z,150
2018-01-11T09:39:24.955Z,170
2018-01-11T09:40:36.158Z,150
2018-01-11T09:41:47.025Z,170
2018-01-11T09:42:56.807Z,170
2018-01-11T09:44:06.883Z,155
2018-01-11T09:45:17.072Z,150
2018-01-11T09:46:27.169Z,140
2018-01-11T09:47:37.240Z,135
2018-01-11T09:48:47.060Z,130
2018-01-11T09:49:56.865Z,170
2018-01-11T09:51:06.687Z,145
2018-01-11T09:52:16.748Z,135
2018-01-11T09:53:26.825Z,140
2018-01-11T09:54:36.907Z,150
2018-01-11T09:55:47.261Z,160
2018-01-11T09:56:57.697Z,175
2018-01-11T09:58:10.291Z,180
2018-01-11T09:59:20.136Z,185
2018-01-11T10:00:30.186Z,170
2018-01-11T10:01:40.269Z,155
2018-01-11T10:02:50.352Z,145
2018-01-11T10:04:00.430Z,155
2018-01-11T10:05:10.531Z,160
2018-01-11T10:06:20.363Z,145
2018-01-11T10:07:30.185Z,160
2018-01-11T10:08:40.290Z,165
2018-01-11T10:09:50.379Z,165
2018-01-11T10:11:00.500Z,150
2018-01-11T10:12:11.154Z,135
2018-01-11T10:13:20.981Z,125
2018-01-11T10:14:31.069Z,135
2018-01-11T10:15:41.245Z,125
2018-01-11T10:16:51.326Z,135
2018-01-11T10:18:01.118Z,145
2018-01-11T10:19:10.944Z,125
2018-01-11T10:20:21.019Z,125
2018-01-11T10:21:31.077Z,130
2018-01-11T10:22:41.174Z,130
2018-01-11T10:23:50.999Z,120
2018-01-11T10:25:01.073Z,120
2018-01-11T10:26:10.894Z,120
2018-01-11T10:27:20.967Z,115
2018-01-11T10:28:30.835Z,115
2018-01-11T10:29:40.651Z,115
2018-01-11T10:30:50.748Z,115
2018-01-11T10:32:00.841Z,115
2018-01-11T10:33:11.049Z,110
2018-01-11T10:34:21.149Z,115
2018-01-11T10:35:30.983Z,115
2018-01-11T10:36:40.825Z,115
2018-01-11T10:37:50.902Z,110
2018-01-11T10:39:00.735Z,110
2018-01-11T10:40:10.575Z,105
2018-01-11T10:41:20.646Z,100
2018-01-11T10:42:30.719Z,95
2018-01-11T10:43:40.522Z,95
2018-01-11T10:44:50.611Z,90
2018-01-11T10:46:00.449Z,90
2018-01-11T10:47:10.563Z,90
2018-01-11T10:48:20.717Z,90
2018-01-11T10:49:30.822Z,95
2018-01-11T10:50:40.908Z,95
2018-01-11T10:51:51.224Z,95
2018-01-11T10:53:01.039Z,100
2018-01-11T10:54:11.127Z,100
2018-01-11T10:55:20.954Z,105
2018-01-11T10:56:31.055Z,105
2018-01-11T10:57:41.119Z,105
2018-01-11T10:58:50.683Z,105
2018-01-11T11:00:00.453Z,105
2018-01-11T11:01:10.007Z,105
2018-01-11T11:02:19.585Z,110
2018-01-11T11:03:29.665Z,110
2018-01-11T11:04:39.752Z,110
2018-01-11T11:05:49.580Z,110
2018-01-11T11:06:59.658Z,110
2018-01-11T11:08:09.575Z,110
2018-01-11T11:09:19.636Z,110
2018-01-11T11:10:29.953Z,110
2018-01-11T11:11:40.081Z,110
2018-01-11T11:12:49.899Z,110
2018-01-11T11:13:59.693Z,105
2018-01-11T11:15:09.774Z,105
2018-01-11T11:16:20.969Z,105
2018-01-11T11:17:31.078Z,110
2018-01-11T11:18:41.155Z,110
2018-01-11T11:19:51.230Z,120
2018-01-11T11:21:01.311Z,115
2018-01-11T11:22:11.449Z,115
2018-01-11T11:23:21.570Z,115
2018-01-11T11:24:31.377Z,115
2018-01-11T11:25:41.455Z,115
2018-01-11T11:26:51.520Z,115
2018-01-11T11:28:01.590Z,110
2018-01-11T11:29:11.759Z,110
2018-01-11T11:30:22.114Z,110
2018-01-11T11:31:31.938Z,110
2018-01-11T11:32:42.006Z,110
2018-01-11T11:33:51.826Z,110
2018-01-11T11:35:01.622Z,110
2018-01-11T11:36:12.143Z,100
2018-01-11T11:37:23.069Z,95
2018-01-11T11:38:32.889Z,90
2018-01-11T11:39:42.688Z,85
2018-01-11T11:40:52.339Z,80
2018-01-11T11:42:01.884Z,85
2018-01-11T11:43:11.949Z,85
2018-01-11T11:44:22.019Z,80
2018-01-11T11:45:32.077Z,75
2018-01-11T11:46:42.006Z,70
2018-01-11T11:47:52.089Z,60
2018-01-11T11:49:02.181Z,60
2018-01-11T11:50:12.248Z,60
2018-01-11T11:51:23.265Z,55
2018-01-11T11:52:33.889Z,55
2018-01-11T11:53:43.699Z,60
2018-01-11T11:54:53.519Z,65
2018-01-11T11:56:03.596Z,65
2018-01-11T11:57:13.690Z,55
2018-01-11T11:58:23.820Z,45
2018-01-11T11:59:33.909Z,40
2018-01-11T12:00:43.988Z,45
2018-01-11T12:01:54.067Z,50
2018-01-11T12:03:04.142Z,45
2018-01-11T12:04:14.224Z,45
2018-01-11T12:05:24.299Z,45
2018-01-11T12:06:34.669Z,45
2018-01-11T12:07:44.769Z,45
2018-01-11T12:08:54.842Z,40
2018-01-11T12:10:04.937Z,40
2018-01-11T12:11:14.761Z,40
2018-01-11T12:12:24.568Z,40
2018-01-11T12:13:34.644Z,40
2018-01-11T12:14:44.759Z,40
2018-01-11T12:15:54.326Z,40
2018-01-11T12:17:04.407Z,40
2018-01-11T12:18:14.510Z,40
2018-01-11T12:19:24.328Z,35
2018-01-11T12:20:34.462Z,35
2018-01-11T12:21:44.267Z,30
2018-01-11T12:22:54.076Z,30
2018-01-11T12:24:03.354Z,35
2018-01-11T12:25:13.413Z,30
2018-01-11T12:26:23.578Z,30
2018-01-11T12:27:33.697Z,30
2018-01-11T12:28:43.449Z,35
2018-01-11T12:29:53.645Z,40
2018-01-11T12:31:03.773Z,40
2018-01-11T12:32:13.908Z,40
2018-01-11T12:33:23.458Z,40
2018-01-11T12:34:33.527Z,45
2018-01-11T12:35:43.337Z,50
2018-01-11T12:36:53.199Z,55
2018-01-11T12:38:03.277Z,60
2018-01-11T12:39:13.347Z,60
2018-01-11T12:40:23.146Z,60
2018-01-11T12:41:33.269Z,55
2018-01-11T12:42:43.359Z,50
2018-01-11T12:43:53.430Z,50
2018-01-11T12:45:03.243Z,55
2018-01-11T12:46:13.323Z,55
2018-01-11T12:47:22.879Z,50
2018-01-11T12:48:32.414Z,50
2018-01-11T12:49:42.480Z,50
2018-01-11T12:50:52.565Z,50
2018-01-11T12:52:02.639Z,50
2018-01-11T12:53:12.459Z,45
2018-01-11T12:54:22.558Z,45
2018-01-11T12:55:32.625Z,45
2018-01-11T12:56:42.477Z,50
2018-01-11T12:57:52.306Z,50
2018-01-11T12:59:02.127Z,50
2018-01-11T13:00:12.230Z,55
2018-01-11T13:01:22.986Z,60
2018-01-11T13:02:33.070Z,65
2018-01-11T13:03:42.890Z,65
2018-01-11T13:04:52.694Z,65
2018-01-11T13:06:02.793Z,70
2018-01-11T13:07:13.919Z,65
2018-01-11T13:08:24.661Z,65
2018-01-11T13:09:34.754Z,65
2018-01-11T13:10:44.828Z,65
2018-01-11T13:11:54.747Z,65
2018-01-11T13:13:04.870Z,60
2018-01-11T13:14:14.956Z,55
2018-01-11T13:15:25.044Z,55
2018-01-11T13:16:36.319Z,55
2018-01-11T13:17:46.146Z,55
2018-01-11T13:18:55.996Z,55
2018-01-11T13:20:06.118Z,50
2018-01-11T13:21:15.930Z,45
2018-01-11T13:22:26.012Z,45
2018-01-11T13:23:35.837Z,45
2018-01-11T13:24:46.194Z,40
2018-01-11T13:25:57.531Z,40
2018-01-11T13:27:07.602Z,40
2018-01-11T13:28:17.784Z,40
2018-01-11T13:29:27.852Z,40
2018-01-11T13:30:37.939Z,35
2018-01-11T13:31:48.061Z,35
2018-01-11T13:32:58.173Z,35
2018-01-11T13:34:08.259Z,35
2018-01-11T13:35:18.340Z,35
2018-01-11T13:36:31.759Z,35
2018-01-11T13:37:41.840Z,35
2018-01-11T13:38:52.062Z,35
2018-01-11T13:40:02.149Z,35
2018-01-11T13:41:11.994Z,35
2018-01-11T13:42:22.706Z,35
2018-01-11T13:43:32.836Z,35
2018-01-11T13:44:42.922Z,35
2018-01-11T13:45:53.004Z,35
2018-01-11T13:47:03.074Z,35
2018-01-11T13:48:13.164Z,30
2018-01-11T13:49:22.980Z,35
2018-01-11T13:50:33.091Z,35
2018-01-11T13:51:42.902Z,35
2018-01-11T13:52:52.977Z,35
2018-01-11T13:54:03.050Z,35
2018-01-11T13:55:14.183Z,35
2018-01-11T13:56:24.032Z,35
2018-01-11T13:57:34.339Z,35
2018-01-11T13:58:45.773Z,35
2018-01-11T13:59:56.848Z,35
2018-01-11T14:01:06.935Z,35
2018-01-11T14:02:17.020Z,30
2018-01-11T14:03:28.278Z,30
2018-01-11T14:04:38.363Z,30
2018-01-11T14:05:48.423Z,30
2018-01-11T14:06:58.502Z,30
2018-01-11T14:08:08.649Z,30
2018-01-11T14:09:19.608Z,25
2018-01-11T14:10:29.434Z,25
2018-01-11T14:11:39.496Z,25
2018-01-11T14:12:49.409Z,25
2018-01-11T14:13:59.540Z,25
2018-01-11T14:15:09.627Z,25
2018-01-11T14:16:19.730Z,20
2018-01-11T14:17:29.876Z,20
2018-01-11T14:18:39.940Z,20
2018-01-11T14:19:50.090Z,20
2018-01-11T14:21:00.384Z,20
2018-01-11T14:22:10.476Z,20
2018-01-11T14:23:20.562Z,15
2018-01-11T14:24:30.385Z,15
2018-01-11T14:25:40.232Z,15
2018-01-11T14:26:50.331Z,15
2018-01-11T14:28:00.447Z,10
2018-01-11T14:29:10.524Z,10
2018-01-11T14:30:20.064Z,10
2018-01-11T14:31:31.252Z,10
2018-01-11T14:32:41.334Z,10
2018-01-11T14:33:52.079Z,10
2018-01-11T14:35:01.900Z,10
2018-01-11T14:36:12.020Z,10
2018-01-11T14:37:21.828Z,10
2018-01-11T14:38:31.927Z,5
2018-01-11T14:39:43.046Z,5
2018-01-11T14:40:53.116Z,5
2018-01-11T14:42:02.953Z,5
2018-01-11T14:43:13.053Z,5
2018-01-11T14:44:23.166Z,5
2018-01-11T14:45:33.564Z,5
2018-01-11T14:46:45.987Z,5
2018-01-11T14:47:56.474Z,5
2018-01-11T14:49:06.548Z,0
2018-01-11T14:50:17.235Z,0
2018-01-11T14:51:27.081Z,0
2018-01-11T14:52:38.133Z,0
2018-01-11T15:01:09.382Z,0
2018-01-11T15:02:19.457Z,0
2018-01-11T15:03:29.571Z,0
2018-01-11T15:04:39.656Z,0
2018-01-11T15:05:49.462Z,0
2018-01-11T15:07:01.672Z,0
2018-01-11T15:08:11.736Z,0
2018-01-11T15:09:21.837Z,0
2018-01-11T15:10:31.641Z,0
2018-01-11T15:11:41.474Z,0
2018-01-11T15:12:51.594Z,0
2018-01-11T15:14:01.677Z,0
2018-01-11T15:15:11.765Z,0
2018-01-11T15:16:21.581Z,0
2018-01-11T15:17:32.705Z,0
2018-01-11T15:18:42.820Z,0
2018-01-11T15:19:53.576Z,0
2018-01-11T15:21:03.671Z,0
2018-01-11T15:22:13.822Z,0
2018-01-11T15:23:23.690Z,0
2018-01-11T15:24:33.846Z,0
2018-01-11T15:25:43.924Z,0
2018-01-11T15:26:53.982Z,0
2018-01-11T15:28:04.042Z,0
2018-01-11T15:29:13.834Z,0
2018-01-11T15:30:24.604Z,0
2018-01-11T15:31:33.886Z,0
2018-01-11T15:32:43.978Z,0
2018-01-11T15:33:54.082Z,0
2018-01-11T15:35:03.960Z,0
2018-01-11T15:36:14.044Z,0
2018-01-11T15:37:23.882Z,0
2018-01-11T15:38:33.992Z,0
2018-01-11T15:39:44.072Z,0
2018-01-11T15:40:54.760Z,0
2018-01-11T15:42:04.955Z,0
2018-01-11T15:43:14.750Z,0
2018-01-11T15:44:24.571Z,0
2018-01-11T15:45:34.620Z,0
2018-01-11T15:46:44.699Z,0
2018-01-11T15:47:54.830Z,0
2018-01-11T15:49:04.999Z,0
2018-01-11T15:50:15.101Z,0
2018-01-11T15:51:25.170Z,0
2018-01-11T15:52:35.266Z,0
2018-01-11T15:53:45.399Z,0
2018-01-11T15:54:55.482Z,0
2018-01-11T15:56:05.565Z,0
2018-01-11T15:57:15.673Z,0
2018-01-11T15:58:25.763Z,0
2018-01-11T15:59:35.826Z,0
2018-01-11T16:00:45.894Z,0
2018-01-11T16:01:55.810Z,0
2018-01-11T16:03:06.878Z,0
2018-01-11T16:04:16.683Z,0
2018-01-11T16:05:26.862Z,0
2018-01-11T16:06:36.706Z,0
2018-01-11T16:07:46.543Z,0
2018-01-11T16:08:56.604Z,0
2018-01-11T16:10:06.683Z,0
2018-01-11T16:11:18.835Z,0
2018-01-11T16:12:32.375Z,0
2018-01-11T16:13:42.830Z,0
2018-01-11T16:14:52.914Z,0
2018-01-11T16:16:03.245Z,0
2018-01-11T16:17:13.363Z,0
2018-01-11T16:18:23.473Z,0
2018-01-11T16:19:33.570Z,0
2018-01-11T16:20:43.658Z,0
2018-01-11T16:21:53.468Z,0
2018-01-11T16:23:04.389Z,0
2018-01-11T16:24:14.524Z,0
2018-01-11T16:25:24.615Z,0
2018-01-11T16:26:34.711Z,0
2018-01-11T16:27:44.607Z,0
2018-01-11T16:28:54.679Z,0
2018-01-11T16:30:04.765Z,0
2018-01-11T16:31:14.874Z,0
2018-01-11T16:32:24.970Z,0
2018-01-11T16:33:35.067Z,0
2018-01-11T16:34:45.688Z,0
2018-01-11T16:35:55.762Z,0
2018-01-11T16:37:05.638Z,0
2018-01-11T16:38:15.721Z,0
2018-01-11T16:39:25.553Z,0
2018-01-11T16:40:35.632Z,0
2018-01-11T16:41:45.711Z,0
2018-01-11T16:42:55.780Z,0
2018-01-11T16:44:05.925Z,0
2018-01-11T16:45:16.314Z,0
2018-01-11T16:46:26.448Z,0
2018-01-11T16:47:36.274Z,0
2018-01-11T16:48:46.364Z,0
2018-01-11T16:49:56.452Z,0
2018-01-11T16:51:06.520Z,0
2018-01-11T16:52:16.624Z,0
2018-01-11T16:53:26.451Z,0
2018-01-11T16:54:36.740Z,0
2018-01-11T16:55:46.548Z,0
2018-01-11T16:56:56.699Z,0
2018-01-11T16:58:06.791Z,0
2018-01-11T16:59:16.903Z,0
2018-01-11T17:00:26.989Z,0
2018-01-11T17:01:37.075Z,0
2018-01-11T17:02:46.892Z,0
2018-01-11T17:03:56.970Z,0
2018-01-11T17:05:06.806Z,0
2018-01-11T17:06:16.902Z,0
2018-01-11T17:07:26.718Z,0
2018-01-11T17:08:36.790Z,0
2018-01-11T17:09:46.864Z,0
2018-01-11T17:10:58.188Z,0
2018-01-11T17:12:08.267Z,0
2018-01-11T17:13:18.359Z,0
2018-01-11T17:14:28.287Z,0
2018-01-11T17:15:38.373Z,0
2018-01-11T17:16:48.479Z,0
2018-01-11T17:17:58.537Z,0
2018-01-11T17:19:08.605Z,0
2018-01-11T17:20:18.732Z,0
2018-01-11T17:21:28.801Z,0
2018-01-11T17:22:38.888Z,0
2018-01-11T17:23:48.971Z,0
2018-01-11T17:24:59.042Z,0
2018-01-11T17:26:09.119Z,0
2018-01-11T17:27:18.913Z,0
2018-01-11T17:28:28.195Z,0
2018-01-11T17:29:38.009Z,0